Drybranch, West Virginia
Current Conditions -  °F | °C
As of 7:54 PM on Tuesday 21 Oct 2014 (Local Time) from KCRW Reporting Station
Moderate Rain Moderate Rain  
Wind Chill: 48°   Ceiling: 2400
Heat Index: 48°   Visibility: 5mi
Dew Point: 46°   Wind: 3mph
Humidity: 93%   Direction: NA
Pressure: 30.05"   Gusts: NA
Location:  38.18°N, 81.47°W
Report Text: KCRW 212354Z VRB03KT 5SM RA BR FEW009 BKN024 OVC040 09/08 A3005 RMK AO2 SLP175 P0010 60015 T00890078 10117 20089 51014
Loading
Personal Weather Stations






























Interactive Weather Map
Tropical Storm Tracking
New forecast layout! Learn more

10-Day Weather Forecast

Advertisements
Track Severe Weather on mobile